Time;durP1;ratioP1;P1;durP2;ratioP2;P2;SDS_P1;SDS_P2;PMS_P1;PMS_P2;Temp;Humidity;BMP_temperature;BMP_pressure;BME280_temperature;BME280_humidity;BME280_pressure;Samples;Min_cycle;Max_cycle;Signal;HPM_P1;HPM_P2
2022/05/30 00:01:41;;;;;;;3.13;2.27;;;16.10;99.90;;;;;;5071255;28;20323;-49
2022/05/30 00:04:08;;;;;;;3.27;2.27;;;16.10;99.90;;;;;;5071323;28;20674;-52
2022/05/30 00:06:35;;;;;;;4.40;2.37;;;16.10;99.90;;;;;;5071315;28;20685;-49
2022/05/30 00:09:04;;;;;;;2.27;1.83;;;16.00;99.90;;;;;;5082240;28;20215;-49
2022/05/30 00:11:31;;;;;;;3.37;2.00;;;16.00;99.90;;;;;;5089425;28;20197;-49
2022/05/30 00:13:57;;;;;;;2.90;2.43;;;16.00;99.90;;;;;;5075933;28;20201;-52
2022/05/30 00:16:24;;;;;;;4.97;2.27;;;16.10;99.90;;;;;;5071365;28;20693;-50
2022/05/30 00:18:52;;;;;;;3.57;2.50;;;16.00;99.90;;;;;;5071271;28;20197;-51
2022/05/30 00:21:20;;;;;;;5.40;2.60;;;16.00;99.90;;;;;;5071146;28;20217;-53
2022/05/30 00:23:48;;;;;;;3.30;2.30;;;16.00;99.90;;;;;;5070981;28;20216;-50
2022/05/30 00:26:17;;;;;;;4.17;2.50;;;16.00;99.90;;;;;;5072020;28;20198;-48
2022/05/30 00:28:44;;;;;;;3.30;2.50;;;16.00;99.90;;;;;;5070744;28;20248;-52
2022/05/30 00:31:12;;;;;;;2.47;2.20;;;16.00;99.90;;;;;;5071067;28;20208;-50
2022/05/30 00:33:40;;;;;;;4.30;2.23;;;16.00;99.90;;;;;;5071231;28;20236;-49
2022/05/30 00:36:07;;;;;;;3.03;2.23;;;15.90;99.90;;;;;;5075512;28;20207;-50
2022/05/30 00:38:34;;;;;;;3.97;2.53;;;15.90;99.90;;;;;;5071296;28;20203;-51
2022/05/30 00:41:01;;;;;;;3.80;2.40;;;15.80;99.90;;;;;;5074409;28;20204;-51
2022/05/30 00:43:32;;;;;;;4.27;2.40;;;15.80;99.90;;;;;;5074173;28;20205;-52
2022/05/30 00:46:01;;;;;;;4.63;2.50;;;15.80;99.90;;;;;;5074150;28;20216;-47
2022/05/30 00:48:31;;;;;;;3.63;2.30;;;15.80;99.90;;;;;;5073986;28;20200;-49
2022/05/30 00:51:02;;;;;;;3.20;2.50;;;15.80;99.90;;;;;;5074003;28;20244;-49
2022/05/30 00:53:31;;;;;;;4.03;2.50;;;15.80;99.90;;;;;;5074022;28;20213;-53
2022/05/30 00:55:59;;;;;;;3.53;2.13;;;15.70;99.90;;;;;;5073693;28;20400;-49
2022/05/30 00:58:30;;;;;;;2.50;2.10;;;15.70;99.90;;;;;;5074176;28;20216;-50
2022/05/30 01:00:57;;;;;;;6.67;2.70;;;15.70;99.90;;;;;;5073795;28;20200;-50
2022/05/30 01:08:54;;;;;;;3.87;2.30;;;15.60;99.90;;;;;;5073669;28;20204;-54
2022/05/30 01:11:21;;;;;;;5.57;2.63;;;15.60;99.90;;;;;;5074124;28;20732;-49
2022/05/30 01:13:49;;;;;;;7.40;2.60;;;15.50;99.90;;;;;;5073726;28;20697;-51
2022/05/30 01:16:16;;;;;;;4.33;2.70;;;15.40;99.90;;;;;;5073704;28;20208;-52
2022/05/30 01:18:47;;;;;;;6.73;3.17;;;15.40;99.90;;;;;;5073833;28;20240;-50
2022/05/30 01:21:34;;;;;;;4.53;2.60;;;15.30;99.90;;;;;;5073841;28;20193;-50
2022/05/30 01:24:15;;;;;;;4.27;2.80;;;15.30;99.90;;;;;;5073488;28;20658;-47
2022/05/30 01:26:54;;;;;;;4.37;3.20;;;15.20;99.90;;;;;;5074091;28;20525;-53
2022/05/30 01:29:28;;;;;;;7.63;2.90;;;15.20;99.90;;;;;;5073193;28;20243;-49
2022/05/30 01:31:55;;;;;;;5.37;3.30;;;15.10;99.90;;;;;;5073371;28;20186;-49
2022/05/30 01:34:23;;;;;;;4.20;2.80;;;15.10;99.90;;;;;;5072991;28;20209;-51
2022/05/30 01:36:50;;;;;;;7.23;2.97;;;15.10;99.90;;;;;;5073395;28;20205;-47
2022/05/30 01:39:17;;;;;;;6.00;3.30;;;15.00;99.90;;;;;;5073593;28;20200;-49
2022/05/30 01:41:44;;;;;;;5.30;3.27;;;15.00;99.90;;;;;;5073240;28;20690;-51
2022/05/30 01:44:11;;;;;;;4.33;3.13;;;14.90;99.90;;;;;;5072918;28;20224;-50
2022/05/30 01:46:39;;;;;;;5.67;3.10;;;14.80;99.90;;;;;;5073132;28;20587;-52
2022/05/30 01:49:06;;;;;;;5.97;3.00;;;14.80;99.90;;;;;;5072711;28;20287;-50
2022/05/30 01:51:33;;;;;;;4.83;3.00;;;14.80;99.90;;;;;;5073242;28;20229;-48
2022/05/30 01:54:00;;;;;;;6.73;3.13;;;14.80;99.90;;;;;;5072933;28;20223;-50
2022/05/30 01:56:27;;;;;;;4.13;3.03;;;14.70;99.90;;;;;;5072570;28;20211;-50
2022/05/30 01:58:54;;;;;;;3.70;2.80;;;14.60;99.90;;;;;;5072842;28;20204;-49
2022/05/30 02:01:24;;;;;;;6.90;3.20;;;14.60;99.90;;;;;;5073082;28;20204;-49
2022/05/30 02:03:53;;;;;;;6.17;3.10;;;14.50;99.90;;;;;;5072255;28;20304;-48
2022/05/30 02:06:22;;;;;;;6.53;3.33;;;14.50;99.90;;;;;;5073130;28;20622;-48
2022/05/30 02:08:49;;;;;;;4.33;3.00;;;14.50;99.90;;;;;;5072931;28;20227;-49
2022/05/30 02:11:18;;;;;;;5.23;3.53;;;14.40;99.90;;;;;;5073252;28;20240;-50
2022/05/30 02:13:45;;;;;;;10.00;3.40;;;14.50;99.90;;;;;;5072244;28;20207;-50
2022/05/30 02:19:00;;;;;;;4.63;3.17;;;14.70;99.90;;;;;;5072591;28;20606;-49
2022/05/30 02:21:27;;;;;;;4.47;3.27;;;14.70;99.90;;;;;;5072751;28;20204;-50
2022/05/30 02:23:54;;;;;;;5.20;3.30;;;14.70;99.90;;;;;;5071942;28;20204;-52
2022/05/30 02:26:21;;;;;;;4.03;2.80;;;14.80;99.90;;;;;;5072595;28;20205;-48
2022/05/30 02:28:48;;;;;;;4.87;3.27;;;14.80;99.90;;;;;;5072073;28;20232;-51
2022/05/30 02:31:14;;;;;;;4.80;3.10;;;14.80;99.90;;;;;;5072167;28;20558;-54
2022/05/30 02:36:44;;;;;;;4.43;3.00;;;14.90;99.90;;;;;;5072375;28;20207;-53
2022/05/30 02:39:13;;;;;;;8.03;3.50;;;14.90;99.90;;;;;;5072331;28;20195;-51
2022/05/30 02:41:41;;;;;;;3.83;3.40;;;14.90;99.90;;;;;;5074816;28;20208;-51
2022/05/30 02:44:08;;;;;;;4.97;3.40;;;14.90;99.90;;;;;;5072355;28;20208;-51
2022/05/30 02:46:35;;;;;;;4.33;3.17;;;14.90;99.90;;;;;;5072224;28;20211;-49
2022/05/30 02:49:02;;;;;;;4.30;3.30;;;14.90;99.90;;;;;;5072352;28;20565;-53
2022/05/30 02:51:31;;;;;;;8.50;3.27;;;14.90;99.90;;;;;;5081140;28;20216;-52
2022/05/30 02:53:58;;;;;;;5.30;3.73;;;14.90;99.90;;;;;;5091968;28;20196;-54
2022/05/30 02:56:25;;;;;;;4.37;3.47;;;15.00;99.90;;;;;;5092417;28;20575;-52
2022/05/30 02:58:52;;;;;;;6.60;3.40;;;15.00;99.90;;;;;;5092076;28;20219;-50
2022/05/30 03:01:19;;;;;;;6.23;3.40;;;15.00;99.90;;;;;;5090928;28;20192;-49
2022/05/30 03:03:46;;;;;;;6.50;4.13;;;15.00;99.90;;;;;;5092253;28;20367;-52
2022/05/30 03:06:13;;;;;;;5.87;3.90;;;15.00;99.90;;;;;;5092263;28;20204;-50
2022/05/30 03:08:41;;;;;;;5.00;3.73;;;15.00;99.90;;;;;;5092150;28;20199;-50
2022/05/30 03:11:08;;;;;;;5.57;4.03;;;15.00;99.90;;;;;;5084394;28;20556;-51
2022/05/30 03:13:35;;;;;;;4.90;3.90;;;15.00;99.90;;;;;;5071915;28;20560;-48
2022/05/30 03:16:01;;;;;;;6.30;3.73;;;15.10;99.90;;;;;;5073744;28;20659;-52
2022/05/30 03:18:28;;;;;;;5.63;3.83;;;15.10;99.90;;;;;;5091873;28;20204;-52
2022/05/30 03:20:55;;;;;;;5.63;3.70;;;15.10;99.90;;;;;;5092124;28;20204;-50
2022/05/30 03:23:22;;;;;;;4.30;3.50;;;15.20;99.90;;;;;;5091644;28;20224;-51
2022/05/30 03:25:51;;;;;;;5.37;3.97;;;15.20;99.90;;;;;;5091987;28;20203;-50
2022/05/30 03:28:18;;;;;;;6.87;3.80;;;15.20;99.90;;;;;;5071507;28;20232;-50
2022/05/30 03:30:44;;;;;;;5.10;4.00;;;15.20;99.90;;;;;;5071501;28;20223;-49
2022/05/30 03:33:12;;;;;;;6.63;4.13;;;15.20;99.90;;;;;;5071802;28;20288;-49
2022/05/30 03:35:39;;;;;;;9.90;4.40;;;15.10;99.90;;;;;;5071642;28;20201;-50
2022/05/30 03:38:08;;;;;;;7.57;4.13;;;15.00;99.90;;;;;;5071570;28;20211;-50
2022/05/30 03:40:37;;;;;;;6.17;4.30;;;15.00;99.90;;;;;;5071353;28;20224;-52
2022/05/30 03:43:07;;;;;;;8.10;4.33;;;15.00;99.90;;;;;;5071341;28;20224;-51
2022/05/30 03:45:34;;;;;;;8.47;4.67;;;15.00;99.90;;;;;;5070825;28;20280;-49
2022/05/30 03:48:01;;;;;;;9.57;4.53;;;15.00;99.90;;;;;;5071679;28;20211;-49
2022/05/30 03:50:28;;;;;;;7.73;4.70;;;15.00;99.90;;;;;;5071147;28;20227;-49
2022/05/30 03:52:54;;;;;;;7.10;4.23;;;15.00;99.90;;;;;;5071284;28;20208;-52
2022/05/30 03:55:23;;;;;;;5.80;4.33;;;15.00;99.90;;;;;;5070493;28;20208;-50
2022/05/30 03:57:51;;;;;;;7.77;4.37;;;15.00;99.90;;;;;;5071230;28;20288;-51
2022/05/30 04:00:22;;;;;;;10.07;4.30;;;15.00;99.90;;;;;;5071293;28;20606;-55
2022/05/30 04:02:49;;;;;;;10.13;4.50;;;14.90;99.90;;;;;;5071465;28;20296;-50
2022/05/30 04:05:16;;;;;;;8.30;4.67;;;14.90;99.90;;;;;;5070714;28;20201;-52
2022/05/30 04:07:43;;;;;;;6.33;4.17;;;15.00;99.90;;;;;;5071065;28;20220;-49
2022/05/30 04:10:11;;;;;;;10.87;4.77;;;15.00;99.90;;;;;;5070993;28;20212;-52
2022/05/30 04:12:38;;;;;;;10.83;5.00;;;15.00;99.90;;;;;;5072447;28;20208;-52
2022/05/30 04:15:08;;;;;;;11.47;5.33;;;14.90;99.90;;;;;;5074725;28;20197;-50
2022/05/30 04:17:37;;;;;;;9.40;5.07;;;14.90;99.90;;;;;;5074715;28;20212;-52
2022/05/30 04:20:06;;;;;;;11.13;6.03;;;14.90;99.90;;;;;;5074972;28;20620;-53
2022/05/30 04:22:33;;;;;;;14.93;6.13;;;14.90;99.90;;;;;;5074793;28;20231;-50
2022/05/30 04:25:00;;;;;;;7.03;5.43;;;14.90;99.90;;;;;;5074492;28;20570;-51
2022/05/30 04:27:26;;;;;;;9.17;5.73;;;14.90;99.90;;;;;;5074424;28;20211;-48
2022/05/30 04:29:53;;;;;;;9.17;5.63;;;14.90;99.90;;;;;;5073948;28;20246;-51
2022/05/30 04:32:20;;;;;;;7.17;5.60;;;14.90;99.90;;;;;;5074346;28;20208;-49
2022/05/30 04:34:48;;;;;;;10.70;5.63;;;15.00;99.90;;;;;;5074510;28;20208;-51
2022/05/30 04:37:15;;;;;;;8.67;5.37;;;15.00;99.90;;;;;;5074358;28;20209;-52
2022/05/30 04:39:42;;;;;;;10.60;5.57;;;15.10;99.90;;;;;;5074194;28;20204;-50
2022/05/30 04:42:09;;;;;;;8.90;6.30;;;15.10;99.90;;;;;;5074660;28;20211;-53
2022/05/30 04:44:36;;;;;;;9.33;6.50;;;15.20;99.90;;;;;;5074678;28;20673;-48
2022/05/30 04:47:03;;;;;;;9.77;6.00;;;15.20;99.90;;;;;;5074598;28;20761;-48
2022/05/30 04:49:30;;;;;;;8.83;6.00;;;15.20;99.90;;;;;;5074522;28;20204;-55
2022/05/30 04:51:59;;;;;;;10.67;5.80;;;15.20;99.90;;;;;;5094013;28;20232;-53
2022/05/30 04:54:26;;;;;;;7.17;5.43;;;15.30;99.90;;;;;;5094708;28;20207;-54
2022/05/30 04:56:53;;;;;;;6.53;5.20;;;15.30;99.90;;;;;;5094552;28;20208;-48
2022/05/30 04:59:20;;;;;;;6.73;5.80;;;15.30;99.90;;;;;;5094353;28;20550;-50
2022/05/30 05:01:46;;;;;;;7.80;5.83;;;15.40;99.90;;;;;;5075945;28;20212;-50
2022/05/30 05:04:14;;;;;;;8.77;6.00;;;15.40;99.90;;;;;;5073968;28;20235;-50
2022/05/30 05:06:44;;;;;;;7.73;5.30;;;15.50;99.90;;;;;;5077208;28;20219;-50
2022/05/30 05:09:40;;;;;;;8.57;5.80;;;15.50;99.90;;;;;;5077244;28;20581;-56
2022/05/30 05:12:08;;;;;;;7.93;5.47;;;15.60;99.90;;;;;;5090354;28;20666;-52
2022/05/30 05:14:34;;;;;;;9.83;5.80;;;15.60;99.90;;;;;;5094387;28;20650;-54
2022/05/30 05:17:01;;;;;;;7.70;5.47;;;15.60;99.90;;;;;;5081664;28;20697;-49
2022/05/30 05:19:30;;;;;;;9.17;5.13;;;15.60;99.90;;;;;;5082229;28;20251;-52
2022/05/30 05:21:57;;;;;;;7.97;5.37;;;15.60;99.90;;;;;;5081876;28;20200;-53
2022/05/30 05:24:25;;;;;;;7.13;4.97;;;15.60;99.90;;;;;;5082326;28;20216;-52
2022/05/30 05:26:52;;;;;;;7.70;5.63;;;15.70;99.90;;;;;;5082611;28;20579;-56
2022/05/30 05:29:19;;;;;;;8.37;6.03;;;15.70;99.90;;;;;;5081563;28;20761;-56
2022/05/30 05:31:46;;;;;;;8.20;5.77;;;15.80;99.90;;;;;;5083144;28;20200;-51
2022/05/30 05:34:16;;;;;;;9.57;5.73;;;15.70;99.90;;;;;;5081945;28;20204;-52
2022/05/30 05:36:46;;;;;;;17.20;6.00;;;15.60;99.90;;;;;;5081543;28;20197;-51
2022/05/30 05:39:14;;;;;;;7.60;5.00;;;15.60;99.90;;;;;;5080948;28;20284;-53
2022/05/30 05:41:44;;;;;;;9.80;5.97;;;15.60;99.90;;;;;;5071952;28;20201;-54
2022/05/30 05:44:11;;;;;;;7.37;5.13;;;15.60;99.90;;;;;;5071811;28;20217;-52
2022/05/30 05:46:38;;;;;;;8.43;5.23;;;15.60;99.90;;;;;;5072674;28;20204;-53
2022/05/30 05:49:09;;;;;;;12.87;5.63;;;15.60;99.90;;;;;;5071869;28;20698;-51
2022/05/30 05:51:36;;;;;;;5.50;4.80;;;15.60;99.90;;;;;;5071808;28;20247;-51
2022/05/30 05:54:03;;;;;;;9.73;6.97;;;15.60;99.90;;;;;;5071745;28;20673;-52
2022/05/30 05:56:31;;;;;;;13.93;10.20;;;15.50;99.90;;;;;;5073321;28;20330;-51
2022/05/30 05:58:59;;;;;;;9.83;7.20;;;15.40;99.90;;;;;;5073278;28;20685;-50
2022/05/30 06:01:28;;;;;;;7.87;6.20;;;15.30;99.90;;;;;;5072994;28;20209;-49
2022/05/30 06:03:55;;;;;;;10.70;6.97;;;15.20;99.90;;;;;;5073207;28;20225;-49
2022/05/30 06:06:22;;;;;;;9.00;6.77;;;15.10;99.90;;;;;;5073045;28;20231;-48
2022/05/30 06:08:50;;;;;;;9.20;6.70;;;15.00;99.90;;;;;;5073056;28;20212;-50
2022/05/30 06:11:19;;;;;;;9.37;6.80;;;15.10;99.90;;;;;;5072500;28;20209;-50
2022/05/30 06:13:47;;;;;;;10.07;7.67;;;15.20;99.90;;;;;;5072731;28;20223;-50
2022/05/30 06:16:18;;;;;;;13.73;8.53;;;15.20;99.90;;;;;;5076352;28;20282;-53
2022/05/30 06:18:44;;;;;;;12.03;8.43;;;15.20;99.90;;;;;;5083998;28;20192;-51
2022/05/30 06:21:12;;;;;;;13.80;9.00;;;15.20;99.90;;;;;;5081525;28;20192;-48
2022/05/30 06:23:38;;;;;;;13.20;8.30;;;15.20;99.90;;;;;;5081328;28;20778;-54
2022/05/30 06:26:07;;;;;;;16.33;10.73;;;15.20;99.90;;;;;;5092976;28;20684;-54
2022/05/30 06:28:35;;;;;;;8.77;5.33;;;15.10;99.90;;;;;;5084211;28;20710;-52
2022/05/30 06:31:06;;;;;;;7.13;5.00;;;14.90;99.90;;;;;;5076573;28;20204;-52
2022/05/30 06:33:34;;;;;;;9.77;6.10;;;14.80;99.90;;;;;;5072508;28;20522;-53
2022/05/30 06:36:02;;;;;;;9.17;5.87;;;14.60;99.90;;;;;;5085930;28;20202;-51
2022/05/30 06:38:28;;;;;;;10.90;6.27;;;14.60;99.90;;;;;;5076769;28;20197;-53
2022/05/30 06:40:55;;;;;;;10.63;5.77;;;14.50;99.90;;;;;;5090826;28;20228;-52
2022/05/30 06:43:22;;;;;;;8.70;5.63;;;14.40;99.90;;;;;;5076865;28;20216;-50
2022/05/30 06:45:49;;;;;;;13.77;8.27;;;14.40;99.90;;;;;;5072380;28;20548;-49
2022/05/30 06:48:16;;;;;;;7.10;5.00;;;14.40;99.90;;;;;;5075270;28;20277;-55
2022/05/30 06:50:44;;;;;;;6.57;4.47;;;14.40;99.90;;;;;;5092333;28;20208;-51
2022/05/30 06:53:11;;;;;;;7.67;4.07;;;14.30;99.90;;;;;;5092396;28;20204;-53
2022/05/30 06:55:38;;;;;;;5.70;3.87;;;14.30;99.90;;;;;;5092295;28;20568;-54
2022/05/30 06:58:13;;;;;;;5.97;4.60;;;14.20;99.90;;;;;;5092100;28;20572;-50
2022/05/30 07:00:40;;;;;;;7.00;4.20;;;14.20;99.90;;;;;;5092351;28;20184;-49
2022/05/30 07:03:07;;;;;;;7.73;4.43;;;14.20;99.90;;;;;;5091041;28;20705;-49
2022/05/30 07:05:34;;;;;;;7.63;5.40;;;14.20;99.90;;;;;;5075506;28;20201;-51
2022/05/30 07:08:02;;;;;;;10.03;5.10;;;14.20;99.90;;;;;;5071976;28;20563;-51
2022/05/30 07:10:31;;;;;;;5.50;4.67;;;14.10;99.90;;;;;;5076819;28;20216;-53
2022/05/30 07:12:58;;;;;;;6.27;5.27;;;14.10;99.90;;;;;;5091337;28;20196;-51
2022/05/30 07:15:25;;;;;;;9.07;4.83;;;14.10;99.90;;;;;;5092088;28;20211;-55
2022/05/30 07:17:52;;;;;;;7.00;5.40;;;14.00;99.90;;;;;;5085131;28;20573;-50
2022/05/30 07:20:18;;;;;;;5.23;4.47;;;14.00;99.90;;;;;;5091860;28;20563;-54
2022/05/30 07:22:45;;;;;;;6.13;4.60;;;14.00;99.90;;;;;;5090269;28;20666;-54
2022/05/30 07:25:14;;;;;;;6.30;4.90;;;13.90;99.90;;;;;;5091419;28;20220;-52
2022/05/30 07:27:40;;;;;;;5.93;4.70;;;14.00;99.90;;;;;;5091991;28;20211;-51
2022/05/30 07:30:09;;;;;;;6.23;4.77;;;14.00;99.90;;;;;;5073586;28;20307;-53
2022/05/30 07:32:36;;;;;;;7.07;4.80;;;14.00;99.90;;;;;;5072733;28;20236;-53
2022/05/30 07:35:03;;;;;;;8.30;5.30;;;13.90;99.90;;;;;;5071555;28;20207;-52
2022/05/30 07:37:30;;;;;;;7.30;5.17;;;13.90;99.90;;;;;;5071638;28;20201;-52
2022/05/30 07:39:57;;;;;;;8.50;4.83;;;13.90;99.90;;;;;;5086118;28;20658;-52
2022/05/30 07:42:25;;;;;;;7.50;5.00;;;14.00;99.90;;;;;;5091780;28;20339;-50
2022/05/30 07:44:52;;;;;;;9.93;4.87;;;14.00;99.90;;;;;;5091743;28;20682;-54
2022/05/30 07:47:20;;;;;;;6.57;4.67;;;14.00;99.90;;;;;;5092235;28;20235;-52
2022/05/30 07:49:47;;;;;;;7.93;5.47;;;14.00;99.90;;;;;;5094904;28;20746;-51
2022/05/30 07:52:14;;;;;;;9.03;5.77;;;14.10;99.90;;;;;;5095745;28;20203;-52
2022/05/30 07:54:41;;;;;;;8.57;5.40;;;14.10;99.90;;;;;;5096037;28;20203;-55
2022/05/30 07:57:08;;;;;;;11.43;5.40;;;14.10;99.90;;;;;;5095721;28;20653;-49
2022/05/30 07:59:36;;;;;;;7.60;5.70;;;14.10;99.90;;;;;;5083486;28;20197;-52
2022/05/30 08:02:04;;;;;;;6.70;5.00;;;14.10;99.90;;;;;;5075298;28;20776;-53
2022/05/30 08:04:31;;;;;;;7.80;5.07;;;14.10;99.90;;;;;;5084148;28;20247;-48
2022/05/30 08:06:58;;;;;;;6.50;5.27;;;14.20;99.90;;;;;;5080503;28;20208;-56
2022/05/30 08:09:24;;;;;;;8.73;5.87;;;14.20;99.90;;;;;;5076487;28;20685;-51
2022/05/30 08:11:51;;;;;;;8.87;5.93;;;14.20;99.90;;;;;;5086021;28;20651;-53
2022/05/30 08:14:19;;;;;;;8.00;5.77;;;14.20;99.90;;;;;;5075237;28;20681;-54
2022/05/30 08:16:48;;;;;;;11.70;6.27;;;14.20;99.90;;;;;;5082217;28;20200;-55
2022/05/30 08:19:14;;;;;;;8.50;5.77;;;14.30;99.90;;;;;;5095207;28;20207;-51
2022/05/30 08:21:41;;;;;;;6.80;5.63;;;14.30;99.90;;;;;;5089751;28;20208;-51
2022/05/30 08:24:08;;;;;;;9.30;6.17;;;14.30;99.90;;;;;;5080122;28;20216;-53
2022/05/30 08:26:35;;;;;;;7.17;5.43;;;14.40;99.90;;;;;;5095323;28;20204;-52
2022/05/30 08:29:02;;;;;;;9.53;5.73;;;14.40;99.90;;;;;;5094494;28;20232;-55
2022/05/30 08:31:29;;;;;;;11.70;6.43;;;14.40;99.90;;;;;;5094712;28;20231;-55
2022/05/30 08:33:58;;;;;;;8.23;5.70;;;14.40;99.90;;;;;;5094939;28;20200;-51
2022/05/30 08:36:24;;;;;;;10.33;6.83;;;14.50;99.90;;;;;;5079798;28;20205;-52
2022/05/30 08:41:46;;;;;;;9.60;6.20;;;14.50;99.90;;;;;;5075598;28;20201;-51
2022/05/30 08:41:49;;;;;;;8.83;6.50;;;14.60;99.90;;;;;;5074233;28;20229;-50
2022/05/30 08:44:16;;;;;;;10.57;6.77;;;14.60;99.90;;;;;;5075859;28;20512;-52
2022/05/30 08:46:49;;;;;;;10.07;6.47;;;14.70;99.90;;;;;;5074773;28;20246;-55
2022/05/30 08:49:22;;;;;;;8.67;6.63;;;14.70;99.90;;;;;;5073821;28;20185;-51
2022/05/30 08:52:12;;;;;;;8.83;6.40;;;14.80;99.90;;;;;;5074105;28;20219;-56
2022/05/30 08:54:50;;;;;;;7.57;6.20;;;14.90;99.90;;;;;;5074445;28;20196;-55
2022/05/30 08:57:28;;;;;;;7.70;5.60;;;14.90;99.90;;;;;;5074455;28;20193;-53
2022/05/30 09:00:05;;;;;;;8.23;5.80;;;15.10;99.90;;;;;;5072633;28;20204;-53
2022/05/30 09:02:39;;;;;;;7.77;6.17;;;15.20;99.90;;;;;;5074121;28;20197;-52
2022/05/30 09:05:11;;;;;;;9.73;6.27;;;15.30;99.90;;;;;;5074209;28;20224;-52
2022/05/30 09:07:46;;;;;;;7.67;5.60;;;15.30;99.90;;;;;;5073637;28;20197;-54
2022/05/30 09:10:21;;;;;;;7.80;5.53;;;15.40;99.90;;;;;;5073830;28;20189;-50
2022/05/30 09:12:52;;;;;;;8.43;5.53;;;15.60;99.90;;;;;;5073654;28;20646;-51
2022/05/30 09:15:22;;;;;;;10.47;5.70;;;15.70;99.90;;;;;;5073983;28;20185;-55
2022/05/30 09:17:55;;;;;;;10.50;5.40;;;15.90;99.90;;;;;;5073896;28;20571;-55
2022/05/30 09:20:24;;;;;;;9.20;5.30;;;16.10;99.90;;;;;;5073594;28;20200;-51
2022/05/30 09:22:52;;;;;;;9.23;5.33;;;16.30;99.90;;;;;;5073457;28;20532;-52
2022/05/30 09:28:06;;;;;;;11.50;5.33;;;16.50;99.90;;;;;;5073452;28;20199;-57
2022/05/30 09:30:39;;;;;;;8.93;6.23;;;16.70;99.90;;;;;;5073305;28;20435;-50
2022/05/30 09:33:16;;;;;;;10.27;5.47;;;16.80;99.90;;;;;;5073832;28;20194;-52
2022/05/30 09:35:44;;;;;;;9.13;5.50;;;16.90;99.90;;;;;;5073244;28;20200;-50
2022/05/30 09:38:23;;;;;;;8.57;5.50;;;17.00;99.90;;;;;;5073458;28;20242;-50
2022/05/30 09:40:53;;;;;;;8.47;5.30;;;17.10;99.90;;;;;;5073613;28;20224;-53
2022/05/30 09:43:26;;;;;;;14.17;6.50;;;17.10;99.90;;;;;;5073564;28;20204;-54
2022/05/30 09:45:54;;;;;;;7.67;5.03;;;17.20;99.90;;;;;;5072755;28;20209;-52
2022/05/30 09:48:22;;;;;;;9.00;5.73;;;17.30;99.90;;;;;;5073299;28;20754;-50
2022/05/30 09:50:52;;;;;;;9.03;5.80;;;17.40;99.90;;;;;;5073509;28;20208;-53
2022/05/30 09:53:41;;;;;;;8.00;5.27;;;17.50;99.90;;;;;;5073055;28;20210;-52
2022/05/30 09:56:09;;;;;;;9.80;5.47;;;17.60;99.90;;;;;;5073406;28;20195;-50
2022/05/30 09:58:47;;;;;;;11.50;5.60;;;17.70;99.90;;;;;;5072919;28;20206;-52
2022/05/30 10:01:24;;;;;;;9.17;5.60;;;17.70;99.90;;;;;;5072642;28;20194;-52
2022/05/30 10:03:54;;;;;;;11.47;6.00;;;17.70;99.90;;;;;;5072428;28;20189;-55
2022/05/30 10:06:25;;;;;;;7.40;5.20;;;17.70;99.90;;;;;;5073234;28;20185;-56
2022/05/30 10:09:09;;;;;;;9.30;5.93;;;17.80;99.90;;;;;;5073133;28;20275;-54
2022/05/30 10:11:36;;;;;;;13.47;6.63;;;17.70;99.90;;;;;;5076598;28;20639;-54
2022/05/30 10:14:18;;;;;;;12.43;6.33;;;17.80;99.90;;;;;;5086982;28;20207;-53
2022/05/30 10:16:46;;;;;;;11.57;5.67;;;17.80;99.90;;;;;;5093323;28;20647;-55
2022/05/30 10:19:25;;;;;;;11.20;6.47;;;17.80;99.90;;;;;;5093210;28;20204;-57
2022/05/30 10:28:17;;;;;;;13.23;7.07;;;17.70;99.90;;;;;;5072497;28;20652;-53
2022/05/30 10:30:57;;;;;;;9.83;6.23;;;17.70;99.90;;;;;;5072319;28;20231;-57
2022/05/30 10:33:47;;;;;;;14.37;7.03;;;17.80;99.90;;;;;;5090571;28;20201;-59
2022/05/30 10:36:22;;;;;;;13.40;6.80;;;17.80;99.90;;;;;;5092581;28;20182;-59
2022/05/30 10:39:03;;;;;;;11.50;6.30;;;17.90;99.90;;;;;;5092888;28;20189;-59
2022/05/30 10:41:36;;;;;;;10.00;6.50;;;17.90;99.90;;;;;;5091397;28;20229;-60
2022/05/30 10:44:10;;;;;;;9.17;6.10;;;17.90;99.90;;;;;;5092250;28;20191;-59
2022/05/30 10:46:43;;;;;;;14.77;6.37;;;17.90;99.90;;;;;;5092522;28;20188;-61
2022/05/30 10:49:14;;;;;;;9.30;6.07;;;17.90;99.90;;;;;;5092669;28;20651;-58
2022/05/30 10:51:50;;;;;;;10.17;6.20;;;17.90;99.90;;;;;;5074252;28;20198;-60
2022/05/30 10:54:25;;;;;;;11.50;6.27;;;17.90;99.90;;;;;;5072222;28;20599;-60
2022/05/30 10:56:57;;;;;;;8.90;6.00;;;17.80;99.90;;;;;;5072298;28;20222;-59
2022/05/30 10:59:31;;;;;;;11.60;6.93;;;17.90;99.90;;;;;;5084765;28;20192;-60
2022/05/30 11:02:04;;;;;;;9.30;6.20;;;17.90;99.90;;;;;;5092461;28;20191;-59
2022/05/30 11:04:42;;;;;;;9.87;6.33;;;17.90;99.90;;;;;;5091729;28;20216;-59
2022/05/30 11:07:29;;;;;;;13.87;6.13;;;17.90;99.90;;;;;;5084135;28;20195;-61
2022/05/30 11:10:03;;;;;;;11.87;6.67;;;18.00;99.90;;;;;;5079897;28;20210;-60
2022/05/30 11:12:36;;;;;;;10.83;6.50;;;18.10;99.90;;;;;;5088257;28;20644;-59
2022/05/30 11:15:09;;;;;;;10.90;6.20;;;18.10;99.90;;;;;;5071403;28;20519;-62
2022/05/30 11:17:41;;;;;;;14.47;6.87;;;18.20;99.90;;;;;;5071660;28;20196;-60
2022/05/30 11:20:12;;;;;;;9.60;5.97;;;18.20;99.90;;;;;;5071904;28;20193;-61
2022/05/30 11:22:41;;;;;;;14.87;6.17;;;18.20;99.90;;;;;;5070768;28;20200;-60
2022/05/30 11:25:13;;;;;;;10.47;6.40;;;18.30;99.90;;;;;;5071017;28;20221;-60
2022/05/30 11:27:41;;;;;;;9.90;6.97;;;18.30;99.90;;;;;;5071538;28;20252;-63
2022/05/30 11:30:33;;;;;;;10.77;6.50;;;18.30;99.90;;;;;;5071404;28;20259;-61
2022/05/30 11:33:17;;;;;;;11.43;6.90;;;18.20;99.90;;;;;;5071523;28;20199;-59
2022/05/30 11:35:51;;;;;;;11.60;7.10;;;18.30;99.90;;;;;;5071417;28;20213;-59
2022/05/30 11:38:41;;;;;;;11.23;7.07;;;18.30;99.90;;;;;;5071599;28;20664;-60
2022/05/30 11:41:23;;;;;;;11.33;6.77;;;18.30;99.90;;;;;;5071197;28;20224;-61
2022/05/30 11:44:15;;;;;;;10.67;7.00;;;18.30;99.90;;;;;;5071701;28;20630;-61
2022/05/30 11:46:54;;;;;;;12.00;7.10;;;18.40;99.90;;;;;;5071715;28;20222;-61
2022/05/30 11:49:32;;;;;;;12.13;7.67;;;18.40;99.90;;;;;;5070927;28;20203;-60
2022/05/30 11:52:12;;;;;;;11.50;7.40;;;18.40;99.90;;;;;;5071459;28;20196;-62
2022/05/30 11:55:01;;;;;;;17.90;7.70;;;18.40;99.90;;;;;;5071507;28;20192;-60
2022/05/30 11:57:38;;;;;;;14.93;7.90;;;18.50;99.90;;;;;;5071297;28;20540;-61
2022/05/30 12:00:13;;;;;;;16.20;7.20;;;18.50;99.90;;;;;;5073765;28;20607;-62
2022/05/30 12:03:25;;;;;;;9.53;6.57;;;18.50;99.90;;;;;;5071280;28;20196;-61
2022/05/30 12:06:44;;;;;;;9.67;7.00;;;18.50;99.90;;;;;;5024919;28;20252;-61
2022/05/30 12:09:40;;;;;;;14.50;6.77;;;18.60;99.90;;;;;;5071243;28;20216;-61
2022/05/30 12:12:33;;;;;;;13.53;7.80;;;18.70;99.90;;;;;;5070989;28;20525;-62
2022/05/30 12:15:30;;;;;;;12.23;6.87;;;18.80;99.90;;;;;;5071498;28;20700;-61
2022/05/30 12:24:21;;;;;;;11.57;7.00;;;19.20;99.90;;;;;;5069722;28;20191;-60
2022/05/30 12:27:08;;;;;;;14.60;7.00;;;19.40;99.90;;;;;;5071804;28;20290;-60
2022/05/30 12:29:50;;;;;;;12.63;6.90;;;19.50;99.90;;;;;;5070137;28;20233;-60
2022/05/30 12:32:37;;;;;;;13.27;6.30;;;19.60;99.90;;;;;;5077756;28;20220;-60
2022/05/30 12:35:26;;;;;;;10.50;6.40;;;19.60;99.90;;;;;;5073039;28;20189;-60
2022/05/30 12:38:06;;;;;;;10.53;6.77;;;19.70;99.90;;;;;;5073484;28;20240;-59
2022/05/30 12:40:36;;;;;;;11.50;5.70;;;19.80;99.90;;;;;;5090497;28;20198;-61
2022/05/30 12:43:10;;;;;;;8.07;5.70;;;19.90;99.90;;;;;;5094812;28;20204;-61
2022/05/30 12:45:42;;;;;;;6.87;5.47;;;19.90;99.90;;;;;;5079023;28;20206;-60
2022/05/30 12:48:17;;;;;;;8.40;5.00;;;20.00;99.90;;;;;;5093928;28;20209;-62
2022/05/30 12:50:58;;;;;;;7.63;5.53;;;20.00;99.90;;;;;;5088652;28;20194;-61
2022/05/30 12:53:46;;;;;;;9.50;4.80;;;20.10;99.90;;;;;;5073598;28;20549;-60
2022/05/30 12:56:36;;;;;;;8.50;4.80;;;20.20;99.90;;;;;;5074310;28;20196;-61
2022/05/30 12:59:11;;;;;;;7.07;4.60;;;20.20;99.90;;;;;;5073827;28;20224;-60
2022/05/30 13:01:52;;;;;;;8.27;4.87;;;20.30;99.90;;;;;;5075521;28;20222;-61
2022/05/30 13:04:25;;;;;;;5.73;4.30;;;20.20;99.90;;;;;;5073709;28;20193;-60
2022/05/30 13:07:13;;;;;;;6.40;4.67;;;20.20;99.90;;;;;;5071715;28;20225;-63
2022/05/30 13:09:42;;;;;;;9.70;5.13;;;20.20;99.90;;;;;;5081614;28;20211;-60
2022/05/30 13:12:51;;;;;;;7.67;4.57;;;20.20;99.90;;;;;;5076157;28;20207;-60
2022/05/30 13:15:37;;;;;;;6.70;4.57;;;20.20;99.90;;;;;;5082740;28;20196;-60
2022/05/30 13:18:13;;;;;;;8.30;5.07;;;20.20;99.90;;;;;;5076263;28;20680;-64
2022/05/30 13:20:51;;;;;;;7.13;5.00;;;20.20;99.90;;;;;;5073899;28;20193;-62
2022/05/30 13:23:28;;;;;;;7.20;5.10;;;20.10;99.90;;;;;;5074190;28;20699;-60
2022/05/30 13:25:56;;;;;;;9.57;4.90;;;20.10;99.90;;;;;;5073755;28;20212;-59
2022/05/30 13:28:27;;;;;;;9.97;5.53;;;20.10;99.90;;;;;;5073169;28;20653;-59
2022/05/30 13:30:55;;;;;;;8.53;5.57;;;20.10;99.90;;;;;;5073494;28;20193;-61